Time;durP1;ratioP1;P1;durP2;ratioP2;P2;SDS_P1;SDS_P2;PMS_P1;PMS_P2;Temp;Humidity;BMP_temperature;BMP_pressure;BME280_temperature;BME280_humidity;BME280_pressure;Samples;Min_cycle;Max_cycle;Signal;HPM_P1;HPM_P2
2023/09/22 00:00:54;;;;;;;3.20;2.40;;;;;;;16.81;94.00;96407.41;6250238;28;20239;-57
2023/09/22 00:03:57;;;;;;;5.67;3.10;;;;;;;16.69;94.51;96411.44;6253243;28;20703;-55
2023/09/22 00:06:59;;;;;;;5.43;2.20;;;;;;;16.56;95.01;96406.97;6251870;28;20238;-55
2023/09/22 00:10:02;;;;;;;5.30;2.43;;;;;;;16.41;96.16;96408.19;6253784;28;20280;-56
2023/09/22 00:13:05;;;;;;;5.27;2.30;;;;;;;16.37;96.80;96417.19;6251818;28;20234;-57
2023/09/22 00:16:09;;;;;;;5.60;2.77;;;;;;;16.19;98.04;96419.78;6253841;28;20315;-56
2023/09/22 00:19:11;;;;;;;5.57;2.80;;;;;;;16.11;98.09;96417.84;6251474;28;20243;-56
2023/09/22 00:22:13;;;;;;;5.40;2.53;;;;;;;16.03;99.11;96415.13;6255299;28;20242;-55
2023/09/22 00:25:16;;;;;;;6.63;2.63;;;;;;;15.91;99.34;96429.91;6252449;28;20239;-55
2023/09/22 00:28:36;;;;;;;3.27;2.00;;;;;;;15.82;100.00;96429.06;6250130;28;20756;-55
2023/09/22 00:31:38;;;;;;;5.30;2.60;;;;;;;15.71;100.00;96422.31;6252599;28;20269;-56
2023/09/22 00:34:41;;;;;;;4.80;2.73;;;;;;;15.66;100.00;96422.44;6253220;28;20230;-55
2023/09/22 00:37:43;;;;;;;5.00;2.70;;;;;;;15.56;100.00;96433.41;6255976;28;20253;-56
2023/09/22 00:40:45;;;;;;;5.40;2.40;;;;;;;15.44;100.00;96424.00;6253538;28;20238;-56
2023/09/22 00:43:47;;;;;;;5.77;2.30;;;;;;;15.35;100.00;96425.81;6257584;28;20649;-56
2023/09/22 00:46:49;;;;;;;7.03;2.40;;;;;;;15.32;100.00;96425.63;6257395;28;20230;-55
2023/09/22 00:49:53;;;;;;;8.23;2.90;;;;;;;15.23;100.00;96418.31;6254459;28;20227;-55
2023/09/22 00:52:55;;;;;;;6.40;2.83;;;;;;;15.16;100.00;96417.91;6253820;28;20783;-55
2023/09/22 00:55:57;;;;;;;3.70;2.33;;;;;;;15.13;100.00;96425.78;6252731;28;20230;-53
2023/09/22 00:58:59;;;;;;;4.87;2.27;;;;;;;15.04;100.00;96424.91;6256727;28;20230;-56
2023/09/22 01:02:02;;;;;;;6.97;3.00;;;;;;;14.96;100.00;96429.06;6255412;28;20238;-55
2023/09/22 01:05:05;;;;;;;5.27;2.27;;;;;;;14.87;100.00;96422.81;6256125;28;20231;-56
2023/09/22 01:08:08;;;;;;;7.57;2.60;;;;;;;14.80;100.00;96425.13;6257690;28;20253;-56
2023/09/22 01:11:10;;;;;;;5.77;2.70;;;;;;;14.73;100.00;96424.72;6259923;28;20231;-55
2023/09/22 01:14:12;;;;;;;3.93;2.80;;;;;;;14.66;100.00;96420.56;6260845;28;20799;-55
2023/09/22 01:17:15;;;;;;;4.33;2.90;;;;;;;14.61;100.00;96419.88;6262385;28;20775;-55
2023/09/22 01:20:19;;;;;;;8.67;2.80;;;;;;;14.55;100.00;96418.41;6255032;28;20610;-54
2023/09/22 01:23:22;;;;;;;4.67;2.97;;;;;;;14.52;100.00;96432.38;6254310;28;20223;-56
2023/09/22 01:26:24;;;;;;;6.17;2.80;;;;;;;14.49;100.00;96443.72;6233529;28;20235;-56
2023/09/22 01:29:27;;;;;;;6.40;2.60;;;;;;;14.44;100.00;96444.56;6257137;28;20657;-56
2023/09/22 01:32:29;;;;;;;6.27;2.40;;;;;;;14.40;100.00;96435.53;6255604;28;20235;-56
2023/09/22 01:35:33;;;;;;;5.00;2.73;;;;;;;14.40;100.00;96428.28;6254980;28;20229;-56
2023/09/22 01:38:35;;;;;;;4.17;2.47;;;;;;;14.38;100.00;96432.34;6251071;28;20680;-54
2023/09/22 01:41:52;;;;;;;4.43;2.63;;;;;;;14.32;100.00;96428.97;6262602;28;20318;-57
2023/09/22 01:44:59;;;;;;;4.03;2.37;;;;;;;14.31;100.00;96442.66;6260264;28;20297;-56
2023/09/22 01:48:10;;;;;;;5.03;2.77;;;;;;;14.33;100.00;96441.25;6253171;28;20227;-56
2023/09/22 01:51:16;;;;;;;3.00;2.40;;;;;;;14.31;100.00;96431.94;6254842;28;20727;-57
2023/09/22 01:54:20;;;;;;;6.37;2.67;;;;;;;14.27;100.00;96436.28;6253833;28;20212;-56
2023/09/22 01:57:25;;;;;;;4.30;2.40;;;;;;;14.17;100.00;96438.06;6234904;28;20239;-56
2023/09/22 02:00:30;;;;;;;4.77;2.40;;;;;;;14.09;100.00;96435.28;6241078;28;20312;-56
2023/09/22 02:03:32;;;;;;;5.80;2.40;;;;;;;14.02;100.00;96430.31;6253866;28;20322;-56
2023/09/22 02:06:37;;;;;;;6.07;2.50;;;;;;;13.91;100.00;96429.69;6259356;28;20239;-55
2023/09/22 02:09:39;;;;;;;3.73;2.20;;;;;;;13.87;100.00;96428.69;6258374;28;20244;-56
2023/09/22 02:12:46;;;;;;;4.50;2.50;;;;;;;13.82;100.00;96422.63;6266943;28;20234;-56
2023/09/22 02:15:52;;;;;;;6.67;2.33;;;;;;;13.79;100.00;96415.16;6251034;28;20341;-56
2023/09/22 02:18:59;;;;;;;5.33;2.37;;;;;;;13.75;100.00;96412.28;6238225;28;20239;-55
2023/09/22 02:22:09;;;;;;;4.83;2.80;;;;;;;13.71;100.00;96411.28;6258632;28;20236;-56
2023/09/22 02:25:15;;;;;;;4.70;2.53;;;;;;;13.72;100.00;96417.44;6255952;28;20657;-54
2023/09/22 02:28:18;;;;;;;4.00;2.30;;;;;;;13.75;100.00;96417.66;6259308;28;20213;-56
2023/09/22 02:31:20;;;;;;;4.20;2.03;;;;;;;13.76;100.00;96421.13;6236475;28;20607;-56
2023/09/22 02:34:22;;;;;;;2.73;2.30;;;;;;;13.78;100.00;96426.97;6253256;28;20238;-56
2023/09/22 02:37:24;;;;;;;3.97;2.43;;;;;;;13.74;100.00;96424.06;6259965;28;20245;-55
2023/09/22 02:40:26;;;;;;;5.13;2.47;;;;;;;13.61;100.00;96436.34;6255661;28;20223;-56
2023/09/22 02:43:29;;;;;;;4.10;2.50;;;;;;;13.49;100.00;96440.53;6245193;28;20211;-55
2023/09/22 02:46:35;;;;;;;5.63;2.43;;;;;;;13.41;100.00;96439.31;6244887;28;20228;-55
2023/09/22 02:49:45;;;;;;;5.47;2.57;;;;;;;13.32;100.00;96433.03;6242162;28;20243;-56
2023/09/22 02:52:48;;;;;;;3.80;2.20;;;;;;;13.23;100.00;96426.72;6256521;28;20231;-56
2023/09/22 02:55:53;;;;;;;4.73;2.30;;;;;;;13.23;100.00;96429.41;6258869;28;20317;-54
2023/09/22 02:59:04;;;;;;;4.67;2.37;;;;;;;13.19;100.00;96431.81;6257755;28;20712;-56
2023/09/22 03:02:06;;;;;;;2.77;2.17;;;;;;;13.13;100.00;96428.44;6237642;28;20223;-56
2023/09/22 03:05:08;;;;;;;4.83;2.60;;;;;;;13.31;100.00;96447.50;6224726;28;20228;-54
2023/09/22 03:08:12;;;;;;;2.37;1.80;;;;;;;13.37;100.00;96451.69;6225131;28;20220;-55
2023/09/22 03:11:15;;;;;;;5.70;2.30;;;;;;;13.38;100.00;96453.25;6228702;28;20632;-56
2023/09/22 03:14:18;;;;;;;2.70;2.33;;;;;;;13.38;100.00;96466.63;6216773;28;20236;-55
2023/09/22 03:17:21;;;;;;;6.23;2.10;;;;;;;13.35;100.00;96468.03;6229579;28;20708;-55
2023/09/22 03:20:23;;;;;;;5.17;2.67;;;;;;;13.13;100.00;96449.81;6230184;28;20231;-54
2023/09/22 03:23:25;;;;;;;5.03;2.63;;;;;;;13.15;100.00;96465.56;6225731;28;20242;-55
2023/09/22 03:26:28;;;;;;;3.67;2.20;;;;;;;13.08;100.00;96465.94;6227916;28;20236;-54
2023/09/22 03:29:34;;;;;;;4.90;2.70;;;;;;;13.03;100.00;96459.84;6236271;28;20235;-56
2023/09/22 03:32:41;;;;;;;4.03;2.47;;;;;;;12.98;100.00;96460.72;6228106;28;20924;-56
2023/09/22 03:35:48;;;;;;;3.83;2.47;;;;;;;12.88;100.00;96458.97;6226895;28;20232;-55
2023/09/22 03:38:51;;;;;;;3.20;2.10;;;;;;;12.97;100.00;96469.03;6225560;28;20725;-56
2023/09/22 03:42:07;;;;;;;3.70;2.27;;;;;;;13.02;100.00;96480.47;6230164;28;20240;-54
2023/09/22 03:45:10;;;;;;;6.17;1.97;;;;;;;13.10;100.00;96495.03;6228185;28;20232;-55
2023/09/22 03:48:12;;;;;;;3.37;1.73;;;;;;;13.16;100.00;96508.09;6228954;28;20247;-55
2023/09/22 03:51:14;;;;;;;2.67;2.00;;;;;;;13.21;100.00;96522.47;6239035;28;20245;-53
2023/09/22 03:54:29;;;;;;;3.60;2.50;;;;;;;13.18;100.00;96542.56;6251800;28;20274;-55
2023/09/22 03:57:31;;;;;;;3.43;2.20;;;;;;;13.16;100.00;96531.34;6251839;28;20229;-55
2023/09/22 04:00:33;;;;;;;4.73;2.37;;;;;;;13.05;100.00;96528.03;6251407;28;20223;-55
2023/09/22 04:03:39;;;;;;;5.33;2.20;;;;;;;13.07;100.00;96557.94;6253248;28;20238;-55
2023/09/22 04:06:41;;;;;;;4.93;2.37;;;;;;;13.02;100.00;96568.69;6249932;28;20234;-55
2023/09/22 04:09:44;;;;;;;4.23;2.30;;;;;;;12.97;100.00;96568.75;6250559;28;20261;-54
2023/09/22 04:12:47;;;;;;;5.97;2.90;;;;;;;12.88;100.00;96573.09;6253592;28;20231;-55
2023/09/22 04:16:00;;;;;;;3.40;1.90;;;;;;;12.93;100.00;96567.72;6253014;28;20830;-55
2023/09/22 04:19:03;;;;;;;4.30;2.37;;;;;;;12.88;100.00;96562.41;6252191;28;20766;-55
2023/09/22 04:22:07;;;;;;;3.53;1.93;;;;;;;12.89;100.00;96570.13;6253147;28;20238;-55
2023/09/22 04:25:18;;;;;;;3.63;2.13;;;;;;;12.80;100.00;96563.81;6252791;28;20227;-54
2023/09/22 04:28:24;;;;;;;4.27;2.17;;;;;;;12.93;100.00;96575.72;6253216;28;20337;-54
2023/09/22 04:31:28;;;;;;;4.33;2.30;;;;;;;13.22;100.00;96578.38;6254832;28;20239;-56
2023/09/22 04:34:30;;;;;;;4.33;2.67;;;;;;;13.27;100.00;96569.50;6253727;28;20266;-56
2023/09/22 04:37:33;;;;;;;5.40;2.30;;;;;;;13.32;100.00;96578.25;6253351;28;20230;-56
2023/09/22 04:40:39;;;;;;;2.73;2.20;;;;;;;13.32;100.00;96572.13;6254353;28;20750;-55
2023/09/22 04:43:41;;;;;;;5.37;2.33;;;;;;;13.40;100.00;96566.13;6259552;28;20226;-53
2023/09/22 04:46:44;;;;;;;5.27;2.67;;;;;;;13.54;100.00;96583.06;6253637;28;20235;-56
2023/09/22 04:49:47;;;;;;;3.97;2.80;;;;;;;13.58;100.00;96596.66;6254316;28;20742;-55
2023/09/22 04:52:50;;;;;;;2.67;2.47;;;;;;;13.60;100.00;96583.81;6251243;28;20243;-54
2023/09/22 04:56:03;;;;;;;4.53;2.57;;;;;;;13.90;100.00;96593.31;6253949;28;20233;-56
2023/09/22 04:59:11;;;;;;;7.03;3.00;;;;;;;14.01;100.00;96589.38;6252317;28;20239;-56
2023/09/22 05:02:14;;;;;;;6.33;3.43;;;;;;;14.29;100.00;96587.63;6251625;28;20219;-54
2023/09/22 05:05:19;;;;;;;6.10;3.43;;;;;;;14.55;100.00;96603.31;6247127;28;20289;-55
2023/09/22 05:08:21;;;;;;;4.90;3.37;;;;;;;14.65;100.00;96606.63;6251450;28;20239;-56
2023/09/22 05:11:23;;;;;;;7.27;3.07;;;;;;;14.76;100.00;96609.13;6251163;28;20236;-56
2023/09/22 05:14:34;;;;;;;3.33;3.00;;;;;;;14.85;100.00;96621.56;6252689;28;20738;-58
2023/09/22 05:17:37;;;;;;;4.17;2.90;;;;;;;14.90;100.00;96634.88;6255339;28;20227;-55
2023/09/22 05:20:41;;;;;;;3.87;2.63;;;;;;;14.91;100.00;96636.47;6251254;28;20231;-56
2023/09/22 05:23:43;;;;;;;4.80;3.00;;;;;;;14.94;100.00;96633.19;6259684;28;20231;-60
2023/09/22 05:27:16;;;;;;;9.83;3.07;;;;;;;14.94;100.00;96640.44;6260426;28;20235;-56
2023/09/22 05:30:52;;;;;;;5.50;3.03;;;;;;;14.92;100.00;96630.00;6261688;28;20211;-55
2023/09/22 05:54:10;;;;;;;2.67;2.40;;;;;;;14.88;100.00;96628.22;6255776;28;20235;-56
2023/09/22 05:57:50;;;;;;;5.47;2.80;;;;;;;14.85;100.00;96626.91;6251750;28;20277;-55
2023/09/22 06:01:23;;;;;;;5.23;3.27;;;;;;;15.15;100.00;96633.63;6254687;28;20251;-56
2023/09/22 06:04:32;;;;;;;5.83;3.20;;;;;;;15.44;100.00;96637.91;6255182;28;20227;-56
2023/09/22 06:08:33;;;;;;;4.00;2.90;;;;;;;15.44;100.00;96638.72;6254895;28;20727;-56
2023/09/22 06:11:55;;;;;;;3.83;3.27;;;;;;;15.48;100.00;96644.28;6247472;28;20317;-61
2023/09/22 06:15:07;;;;;;;4.53;2.77;;;;;;;15.51;100.00;96654.41;6251809;28;20232;-57
2023/09/22 06:18:12;;;;;;;3.10;2.73;;;;;;;15.61;100.00;96650.72;6242293;28;20231;-56
2023/09/22 06:21:16;;;;;;;4.37;3.30;;;;;;;15.67;100.00;96653.06;6236217;28;20302;-56
2023/09/22 06:24:20;;;;;;;2.70;2.50;;;;;;;15.73;100.00;96672.53;6257704;28;20688;-56
2023/09/22 06:27:26;;;;;;;3.33;2.70;;;;;;;15.80;100.00;96670.22;6259544;28;20604;-56
2023/09/22 06:30:30;;;;;;;2.40;2.10;;;;;;;15.95;100.00;96677.97;6246627;28;20254;-55
2023/09/22 06:33:32;;;;;;;3.77;2.37;;;;;;;16.05;100.00;96687.72;6254015;28;20218;-55
2023/09/22 06:36:36;;;;;;;5.57;1.73;;;;;;;16.27;98.16;96700.44;6253965;28;20242;-55
2023/09/22 06:39:39;;;;;;;1.60;1.23;;;;;;;17.46;84.97;96711.56;6255321;28;20218;-55
2023/09/22 06:42:44;;;;;;;1.73;1.10;;;;;;;17.82;79.95;96721.41;6251667;28;20269;-56
2023/09/22 06:45:47;;;;;;;3.33;1.20;;;;;;;18.11;78.86;96728.94;6252792;28;20230;-57
2023/09/22 06:48:50;;;;;;;1.53;1.00;;;;;;;18.08;80.32;96739.53;6254920;28;20356;-54
2023/09/22 06:51:52;;;;;;;2.00;1.00;;;;;;;17.98;83.46;96749.53;6252665;28;20227;-56
2023/09/22 06:54:55;;;;;;;1.40;1.10;;;;;;;18.04;81.90;96742.09;6253960;28;20250;-56
2023/09/22 07:04:37;;;;;;;2.27;1.20;;;;;;;18.70;73.20;96771.75;6264284;28;20262;-89
2023/09/22 07:07:40;;;;;;;1.53;1.23;;;;;;;18.53;72.00;96738.22;6263440;28;20654;-89
2023/09/22 07:10:42;;;;;;;2.77;1.33;;;;;;;18.68;69.57;96709.19;6245876;28;20512;-89
2023/09/22 07:13:45;;;;;;;2.63;1.40;;;;;;;18.27;70.82;96649.22;6244863;28;20596;-89
2023/09/22 07:16:49;;;;;;;2.03;1.30;;;;;;;18.17;68.47;96624.47;6261950;28;20234;-89
2023/09/22 07:19:53;;;;;;;1.40;1.30;;;;;;;18.91;69.09;96726.03;6262435;28;20515;-90
2023/09/22 07:22:59;;;;;;;1.93;1.27;;;;;;;18.62;68.36;96668.09;6246648;28;20237;-90
2023/09/22 07:26:09;;;;;;;1.63;1.20;;;;;;;19.29;71.28;96780.94;6264879;28;20238;-90
2023/09/22 07:30:09;;;;;;;1.20;1.10;;;;;;;18.18;74.58;96653.03;6269600;28;20625;-96
2023/09/22 07:44:28;;;;;;;;;;;;;;;;;;;;;
2023/09/22 07:47:37;;;;;;;1.10;0.97;;;;;;;19.47;68.97;96745.81;6156836;28;20238;-92
2023/09/22 07:50:56;;;;;;;1.43;1.10;;;;;;;19.23;67.71;96674.22;6251445;28;20667;-92
2023/09/22 07:54:02;;;;;;;2.37;1.23;;;;;;;18.98;68.16;96651.56;6233157;28;20604;-92
2023/09/22 07:57:06;;;;;;;1.57;1.23;;;;;;;18.88;69.73;96621.44;6263355;28;20225;-92
2023/09/22 08:00:38;;;;;;;1.10;1.00;;;;;;;19.33;71.33;96705.47;6256161;28;20272;-91
2023/09/22 08:03:48;;;;;;;1.60;1.20;;;;;;;17.81;71.40;96515.06;6245497;28;21001;-92
2023/09/22 08:07:00;;;;;;;1.23;1.10;;;;;;;19.33;71.75;96714.38;6243371;28;20716;-91
2023/09/22 08:10:41;;;;;;;2.07;1.23;;;;;;;18.12;69.96;96546.44;6229710;28;20249;-92
2023/09/22 08:13:46;;;;;;;1.67;1.07;;;;;;;19.50;69.13;96712.72;6238506;28;20234;-92
2023/09/22 08:17:32;;;;;;;2.00;1.23;;;;;;;18.61;68.24;96579.38;6230133;28;20227;-94
2023/09/22 08:21:20;;;;;;;1.90;1.40;;;;;;;20.42;65.70;96794.09;6244370;28;20235;-91
2023/09/22 08:24:26;;;;;;;0.90;0.90;;;;;;;20.15;65.70;96729.63;6251723;28;20227;-89
2023/09/22 08:27:40;;;;;;;1.60;1.50;;;;;;;19.99;66.28;96703.16;6249547;28;20366;-88
2023/09/22 08:30:49;;;;;;;1.53;1.30;;;;;;;20.74;64.06;96779.13;6254296;28;20220;-94
2023/09/22 08:34:03;;;;;;;1.73;1.40;;;;;;;19.08;63.26;96534.34;6281375;28;20257;-96
2023/09/22 08:38:12;;;;;;;1.67;1.20;;;;;;;19.27;63.67;96550.94;6232055;28;20229;-94
2023/09/22 08:41:41;;;;;;;1.37;1.13;;;;;;;20.38;67.10;96724.72;6252623;28;20727;-95
2023/09/22 08:45:12;;;;;;;1.73;1.20;;;;;;;19.23;65.42;96523.00;6239912;28;20644;-94
2023/09/22 08:48:46;;;;;;;2.80;1.30;;;;;;;19.91;64.48;96601.28;6265622;28;20234;-94
2023/09/22 08:52:07;;;;;;;1.60;1.33;;;;;;;20.32;65.98;96645.69;6246005;28;20251;-94
2023/09/22 08:55:13;;;;;;;2.20;1.50;;;;;;;20.55;62.15;96657.00;6259002;28;20219;-94
2023/09/22 08:58:23;;;;;;;1.37;1.23;;;;;;;21.53;61.66;96785.47;6244375;28;20239;-94
2023/09/22 09:01:27;;;;;;;1.83;1.30;;;;;;;19.99;59.84;96522.03;6241914;28;20254;-95
2023/09/22 09:04:34;;;;;;;1.80;1.40;;;;;;;21.74;57.03;96752.09;6241256;28;20280;-93
2023/09/22 09:07:39;;;;;;;1.63;1.20;;;;;;;20.78;58.57;96597.88;6258945;28;20235;-92
2023/09/22 09:10:43;;;;;;;1.57;1.23;;;;;;;20.32;59.85;96548.31;6260012;28;20239;-93
2023/09/22 09:13:46;;;;;;;2.43;1.40;;;;;;;20.22;60.16;96517.06;6260769;28;20238;-94
2023/09/22 09:16:48;;;;;;;2.90;1.50;;;;;;;21.04;61.77;96624.69;6243347;28;20238;-94
2023/09/22 09:20:02;;;;;;;2.03;1.10;;;;;;;20.21;60.03;96510.09;6260139;28;20227;-93
2023/09/22 09:23:21;;;;;;;1.73;1.07;;;;;;;21.97;60.05;96766.00;6261894;28;20226;-94
2023/09/22 09:26:27;;;;;;;1.60;1.40;;;;;;;21.81;58.84;96722.47;6249012;28;20256;-93
2023/09/22 09:29:31;;;;;;;2.53;1.37;;;;;;;21.78;59.60;96712.34;6260384;28;20230;-93
2023/09/22 09:32:36;;;;;;;1.50;1.17;;;;;;;22.02;60.66;96753.03;6240976;28;20611;-93
2023/09/22 09:35:41;;;;;;;1.53;1.43;;;;;;;21.44;58.19;96638.44;6255925;28;20297;-92
2023/09/22 09:38:53;;;;;;;1.70;1.20;;;;;;;22.23;57.78;96742.06;6266365;28;20227;-93
2023/09/22 09:41:57;;;;;;;1.20;1.10;;;;;;;21.99;56.02;96687.81;6281952;28;20227;-93
2023/09/22 09:45:03;;;;;;;1.73;1.17;;;;;;;21.94;55.46;96658.22;6290101;28;20210;-93
2023/09/22 09:48:10;;;;;;;2.70;1.33;;;;;;;22.59;55.98;96754.00;6278218;28;20199;-92
2023/09/22 09:51:20;;;;;;;3.00;1.50;;;;;;;22.15;56.41;96665.09;6255930;28;20214;-93
2023/09/22 09:54:24;;;;;;;6.13;1.70;;;;;;;22.26;57.07;96714.25;6259888;28;20230;-93
2023/09/22 09:57:31;;;;;;;2.00;1.30;;;;;;;21.81;58.71;96622.97;6260943;28;20223;-93
2023/09/22 10:00:39;;;;;;;2.13;1.20;;;;;;;21.69;59.73;96622.97;6256254;28;20714;-93
2023/09/22 10:03:42;;;;;;;1.53;1.20;;;;;;;21.72;56.36;96592.47;6252732;28;20238;-92
2023/09/22 10:06:50;;;;;;;2.83;1.40;;;;;;;21.15;56.38;96481.50;6256009;28;20239;-92
2023/09/22 10:09:54;;;;;;;3.38;1.40;;;;;;;22.52;55.26;96678.59;6250393;28;20227;-92
2023/09/22 10:13:00;;;;;;;4.05;1.40;;;;;;;22.10;54.41;96575.00;6257697;28;20249;-93
2023/09/22 10:16:08;;;;;;;2.70;1.48;;;;;;;21.59;52.87;96490.63;6256736;28;20242;-93
2023/09/22 10:19:13;;;;;;;2.63;1.40;;;;;;;23.16;52.00;96712.22;6249424;28;20247;-93
2023/09/22 10:22:18;;;;;;;2.10;1.30;;;;;;;22.45;56.75;96613.25;6258592;28;20227;-94
2023/09/22 10:25:24;;;;;;;4.32;1.67;;;;;;;23.25;53.42;96740.03;6255377;28;20227;-91
2023/09/22 10:28:36;;;;;;;3.63;1.60;;;;;;;23.08;52.31;96696.84;6237025;28;20301;-90
2023/09/22 10:32:26;;;;;;;3.28;1.40;;;;;;;23.37;50.65;96725.59;6270906;28;20230;-93
2023/09/22 10:35:41;;;;;;;2.45;1.50;;;;;;;23.52;49.61;96729.47;6278329;28;20230;-93
2023/09/22 10:38:53;;;;;;;3.10;1.40;;;;;;;23.52;50.82;96737.63;6272690;28;20231;-92
2023/09/22 10:42:06;;;;;;;2.92;1.52;;;;;;;22.61;52.48;96608.66;6273087;28;20235;-92
2023/09/22 10:46:14;;;;;;;;;;;;;;;;;;;;;
2023/09/22 10:50:00;;;;;;;2.33;1.52;;;;;;;23.91;51.34;96719.59;6231917;28;20231;-89
2023/09/22 10:54:12;;;;;;;3.00;1.50;;;;;;;23.85;52.05;96726.44;6257973;28;20258;-89
2023/09/22 10:57:53;;;;;;;4.97;1.60;;;;;;;22.62;52.70;96544.31;6248515;28;20238;-89
2023/09/22 11:01:04;;;;;;;2.67;1.50;;;;;;;23.41;52.00;96663.94;6256238;28;20231;-90
2023/09/22 11:04:10;;;;;;;2.80;1.60;;;;;;;23.16;51.89;96595.38;6255600;28;20245;-89
2023/09/22 11:07:29;;;;;;;3.40;1.70;;;;;;;23.85;51.03;96719.06;6266537;28;20251;-90
2023/09/22 11:10:31;;;;;;;8.15;2.17;;;;;;;23.29;50.92;96629.47;6236439;28;20326;-89
2023/09/22 11:13:34;;;;;;;3.20;1.80;;;;;;;23.83;51.62;96710.47;6223496;28;20231;-89
2023/09/22 11:16:36;;;;;;;2.33;1.50;;;;;;;23.42;52.91;96651.94;6239477;28;20247;-90
2023/09/22 11:19:53;;;;;;;4.15;1.52;;;;;;;23.99;53.63;96739.59;6237176;28;20417;-90
2023/09/22 11:22:57;;;;;;;4.30;1.98;;;;;;;24.26;51.91;96746.06;6250069;28;20239;-89
2023/09/22 11:26:12;;;;;;;4.25;1.80;;;;;;;23.97;51.79;96676.59;6255466;28;20227;-89
2023/09/22 11:29:16;;;;;;;3.95;1.50;;;;;;;23.73;52.19;96643.00;6239115;28;20306;-90
2023/09/22 11:32:32;;;;;;;2.90;1.73;;;;;;;24.24;52.10;96713.78;6289981;28;20227;-90
2023/09/22 11:35:42;;;;;;;2.92;1.85;;;;;;;23.60;52.28;96606.16;6243138;28;20310;-90
2023/09/22 11:38:53;;;;;;;2.83;1.35;;;;;;;23.72;52.02;96646.09;6252391;28;20231;-87
2023/09/22 11:41:56;;;;;;;3.35;1.70;;;;;;;23.94;52.40;96678.88;6260184;28;20235;-88
2023/09/22 11:44:58;;;;;;;4.03;1.75;;;;;;;24.06;52.57;96694.31;6253034;28;20247;-87
2023/09/22 11:48:05;;;;;;;2.65;1.67;;;;;;;24.09;51.49;96690.88;6252148;28;20234;-89
2023/09/22 11:51:07;;;;;;;2.53;1.55;;;;;;;23.57;52.19;96634.03;6266355;28;20328;-87
2023/09/22 11:54:30;;;;;;;3.60;1.85;;;;;;;23.81;53.09;96677.41;6250811;28;20227;-88
2023/09/22 11:57:32;;;;;;;2.03;1.40;;;;;;;23.00;53.04;96532.09;6237045;28;20227;-87
2023/09/22 12:00:34;;;;;;;6.55;1.77;;;;;;;23.86;53.05;96687.22;6254771;28;20260;-89
2023/09/22 12:03:40;;;;;;;5.18;2.08;;;;;;;23.61;53.28;96651.25;6256016;28;20289;-88
2023/09/22 12:06:42;;;;;;;3.45;1.50;;;;;;;24.11;53.08;96710.34;6260570;28;20234;-87
2023/09/22 12:09:46;;;;;;;3.67;1.42;;;;;;;23.69;51.71;96650.28;6236604;28;20700;-86
2023/09/22 12:12:48;;;;;;;3.88;1.58;;;;;;;23.47;54.44;96618.25;6252173;28;20252;-87
2023/09/22 12:15:51;;;;;;;6.43;1.60;;;;;;;23.91;56.26;96678.78;6231678;28;20219;-87
2023/09/22 12:18:53;;;;;;;3.60;1.30;;;;;;;23.65;56.41;96655.66;6236379;28;20224;-88
2023/09/22 12:21:56;;;;;;;2.25;1.38;;;;;;;22.71;56.75;96525.94;6252120;28;20310;-87
2023/09/22 12:25:01;;;;;;;1.85;1.50;;;;;;;22.85;58.44;96591.44;6253065;28;20720;-88
2023/09/22 12:28:03;;;;;;;3.20;1.67;;;;;;;22.68;61.54;96575.50;6252287;28;20269;-87
2023/09/22 12:31:05;;;;;;;3.50;1.40;;;;;;;23.00;61.39;96665.19;6251031;28;20223;-89
2023/09/22 12:34:07;;;;;;;2.20;1.63;;;;;;;22.88;60.56;96666.03;6253354;28;20234;-87
2023/09/22 12:37:09;;;;;;;3.78;1.45;;;;;;;22.74;58.71;96644.69;6252408;28;20223;-87
2023/09/22 12:40:52;;;;;;;6.82;1.50;;;;;;;23.13;60.05;96678.38;6251579;28;20255;-88
2023/09/22 12:43:58;;;;;;;3.13;1.65;;;;;;;22.84;60.45;96627.09;6264878;28;20219;-88
2023/09/22 12:47:20;;;;;;;1.70;1.02;;;;;;;22.44;61.65;96567.47;6238739;28;20230;-87
2023/09/22 12:50:55;;;;;;;2.40;1.40;;;;;;;23.03;62.41;96662.56;6251527;28;20227;-87
2023/09/22 12:53:58;;;;;;;2.60;1.60;;;;;;;22.82;62.54;96637.53;6258908;28;20598;-87
2023/09/22 12:57:01;;;;;;;2.17;1.17;;;;;;;23.00;63.74;96681.50;6235440;28;20215;-88
2023/09/22 13:00:06;;;;;;;1.35;1.20;;;;;;;22.71;64.52;96620.16;6252148;28;20223;-86
2023/09/22 13:03:10;;;;;;;3.53;1.63;;;;;;;22.62;65.72;96621.09;6263868;28;20296;-89
2023/09/22 13:06:13;;;;;;;4.10;1.73;;;;;;;21.90;67.00;96538.78;6251609;28;20204;-87
2023/09/22 13:09:15;;;;;;;2.85;1.77;;;;;;;22.91;67.76;96668.88;6235789;28;20211;-87
2023/09/22 13:12:20;;;;;;;4.60;1.60;;;;;;;22.45;68.33;96610.53;6233782;28;20215;-88
2023/09/22 13:15:22;;;;;;;1.98;1.35;;;;;;;21.94;68.96;96547.81;6235235;28;20227;-88
2023/09/22 13:18:32;;;;;;;3.65;1.50;;;;;;;22.04;68.71;96543.84;6238922;28;20223;-90
2023/09/22 13:21:35;;;;;;;2.95;1.38;;;;;;;21.85;70.22;96536.31;6252569;28;20227;-87
2023/09/22 13:24:39;;;;;;;1.60;1.50;;;;;;;22.59;70.89;96654.34;6234285;28;20230;-94
2023/09/22 13:27:44;;;;;;;4.70;1.85;;;;;;;22.47;70.17;96646.28;6267712;28;20234;-85
2023/09/22 13:30:53;;;;;;;3.13;1.70;;;;;;;21.79;69.10;96540.41;6250649;28;20230;-85
2023/09/22 13:33:57;;;;;;;4.60;1.98;;;;;;;22.07;68.35;96587.34;6251864;28;20234;-87
2023/09/22 13:36:59;;;;;;;5.10;2.00;;;;;;;22.15;67.96;96599.19;6251514;28;20239;-88
2023/09/22 13:40:10;;;;;;;5.22;1.88;;;;;;;22.61;67.08;96667.56;6251983;28;20231;-87
2023/09/22 13:43:20;;;;;;;1.77;1.30;;;;;;;21.78;67.70;96545.03;6254009;28;20223;-87
2023/09/22 13:46:23;;;;;;;3.45;1.50;;;;;;;22.60;66.80;96674.94;6254591;28;20551;-87
2023/09/22 13:49:44;;;;;;;2.05;1.77;;;;;;;21.46;67.61;96502.63;6262622;28;20224;-89
2023/09/22 13:52:47;;;;;;;3.72;1.65;;;;;;;22.13;67.97;96604.19;6244559;28;20231;-89
2023/09/22 13:56:18;;;;;;;6.18;1.80;;;;;;;21.57;67.35;96530.81;6242246;28;20273;-89
2023/09/22 13:59:20;;;;;;;3.88;1.95;;;;;;;21.72;66.65;96535.53;6245876;28;20235;-87
2023/09/22 14:02:22;;;;;;;4.47;1.60;;;;;;;21.69;66.30;96544.38;6263094;28;20375;-89
2023/09/22 14:05:28;;;;;;;4.30;2.13;;;;;;;20.97;65.28;96405.13;6246062;28;20726;-89
2023/09/22 14:08:30;;;;;;;5.55;2.10;;;;;;;21.51;65.42;96495.03;6245525;28;20696;-89
2023/09/22 14:11:38;;;;;;;4.73;1.90;;;;;;;22.13;65.48;96601.47;6261430;28;20612;-89
2023/09/22 14:14:40;;;;;;;4.38;1.63;;;;;;;22.04;65.30;96577.16;6262841;28;20606;-89
2023/09/22 14:17:44;;;;;;;4.00;1.80;;;;;;;21.92;65.84;96546.56;6277201;28;20287;-89
2023/09/22 14:20:51;;;;;;;4.03;1.98;;;;;;;21.82;67.29;96545.13;6265416;28;20727;-94
2023/09/22 14:23:55;;;;;;;4.45;1.90;;;;;;;21.75;67.73;96523.22;6265092;28;20268;-94
2023/09/22 14:26:58;;;;;;;3.35;1.60;;;;;;;21.59;68.77;96490.63;6262942;28;20246;-93
2023/09/22 14:30:01;;;;;;;2.40;1.73;;;;;;;21.66;69.40;96526.06;6240970;28;20230;-92
2023/09/22 14:33:14;;;;;;;3.33;1.77;;;;;;;21.87;70.50;96547.59;6247138;28;20210;-93
2023/09/22 14:36:27;;;;;;;6.53;2.30;;;;;;;21.97;70.42;96606.81;6245677;28;20600;-92
2023/09/22 14:39:46;;;;;;;3.83;2.35;;;;;;;21.62;71.01;96555.78;6247652;28;20272;-91
2023/09/22 14:42:48;;;;;;;3.15;1.77;;;;;;;22.22;71.43;96652.91;6235434;28;20246;-55
2023/09/22 14:45:50;;;;;;;4.47;1.90;;;;;;;22.11;72.41;96650.63;6220533;28;20711;-56
2023/09/22 14:48:53;;;;;;;5.03;2.25;;;;;;;22.04;72.49;96655.03;6219724;28;20239;-57
2023/09/22 14:51:55;;;;;;;3.83;2.00;;;;;;;22.04;71.82;96657.75;6218519;28;20247;-55
2023/09/22 14:54:56;;;;;;;3.67;1.50;;;;;;;21.99;71.90;96663.41;6217945;28;20235;-56
2023/09/22 14:58:00;;;;;;;2.40;1.70;;;;;;;21.95;72.44;96666.00;6220270;28;20238;-57
2023/09/22 15:01:08;;;;;;;4.10;1.90;;;;;;;21.94;73.95;96671.78;6226643;28;20273;-55
2023/09/22 15:04:10;;;;;;;3.13;1.90;;;;;;;21.89;74.84;96673.56;6229476;28;20720;-57
2023/09/22 15:07:13;;;;;;;4.17;2.00;;;;;;;21.77;74.59;96660.03;6217761;28;20728;-57
2023/09/22 15:10:15;;;;;;;3.15;2.30;;;;;;;21.89;73.60;96681.72;6219736;28;20242;-55
2023/09/22 15:13:17;;;;;;;5.87;2.30;;;;;;;21.90;73.97;96672.44;6218556;28;20239;-56
2023/09/22 15:16:25;;;;;;;4.93;2.37;;;;;;;21.87;74.07;96665.00;6219920;28;20235;-56
2023/09/22 15:19:30;;;;;;;7.27;2.47;;;;;;;21.87;73.92;96661.47;6219543;28;20307;-53
2023/09/22 15:22:32;;;;;;;5.27;2.77;;;;;;;21.85;74.29;96669.94;6218875;28;20291;-57